Time;durP1;ratioP1;P1;durP2;ratioP2;P2;SDS_P1;SDS_P2;PMS_P1;PMS_P2;Temp;Humidity;BMP_temperature;BMP_pressure;BME280_temperature;BME280_humidity;BME280_pressure;Samples;Min_cycle;Max_cycle;Signal;HPM_P1;HPM_P2
2023/03/05 00:00:10;;;;;;;0.60;0.60;;;;;;;1.37;76.90;97147.09;29374;299;63009;-57
2023/03/05 00:00:42;;;;;;;0.52;0.52;;;;;;;1.33;77.09;97150.22;29374;205;63013;-55
2023/03/05 00:01:16;;;;;;;0.60;0.60;;;;;;;1.34;77.30;97146.50;29374;278;63008;-56
2023/03/05 00:01:48;;;;;;;0.60;0.60;;;;;;;1.33;77.24;97147.53;29375;211;63009;-56
2023/03/05 00:02:19;;;;;;;0.60;0.60;;;;;;;1.34;77.15;97143.81;29375;214;63004;-56
2023/03/05 00:02:50;;;;;;;0.60;0.60;;;;;;;1.36;77.38;97142.78;29373;242;64014;-56
2023/03/05 00:03:22;;;;;;;0.60;0.60;;;;;;;1.34;77.46;97141.16;29375;294;63005;-57
2023/03/05 00:03:54;;;;;;;0.65;0.65;;;;;;;1.36;77.36;97142.78;29375;208;63009;-56
2023/03/05 00:04:27;;;;;;;0.60;0.60;;;;;;;1.37;77.76;97144.41;29373;220;64009;-56
2023/03/05 00:04:58;;;;;;;0.60;0.60;;;;;;;1.36;77.59;97138.25;29375;226;63009;-56
2023/03/05 00:05:29;;;;;;;0.60;0.60;;;;;;;1.37;77.48;97147.91;29375;213;63005;-68
2023/03/05 00:06:00;;;;;;;0.60;0.60;;;;;;;1.37;77.73;97145.22;29375;218;63009;-56
2023/03/05 00:06:32;;;;;;;0.60;0.60;;;;;;;1.38;77.81;97140.69;29375;359;63005;-56
2023/03/05 00:07:04;;;;;;;0.60;0.60;;;;;;;1.39;77.72;97145.00;29373;221;64013;-56
2023/03/05 00:07:35;;;;;;;0.60;0.60;;;;;;;1.38;77.51;97144.19;29375;211;63004;-56
2023/03/05 00:08:07;;;;;;;0.60;0.60;;;;;;;1.39;77.71;97145.78;29375;265;63009;-56
2023/03/05 00:08:38;;;;;;;0.68;0.68;;;;;;;1.39;77.35;97148.47;29375;229;63004;-56
2023/03/05 00:09:10;;;;;;;0.60;0.60;;;;;;;1.39;77.27;97142.31;29375;266;63009;-57
2023/03/05 00:09:41;;;;;;;0.60;0.60;;;;;;;1.39;77.39;97140.44;29375;218;63004;-56
2023/03/05 00:10:12;;;;;;;0.60;0.60;;;;;;;1.41;77.36;97142.87;29375;238;63008;-56
2023/03/05 00:10:43;;;;;;;0.60;0.60;;;;;;;1.42;77.33;97141.84;29374;297;64009;-56
2023/03/05 00:11:15;;;;;;;0.60;0.60;;;;;;;1.43;77.38;97143.47;29376;239;63009;-57
2023/03/05 00:11:47;;;;;;;0.60;0.60;;;;;;;1.43;77.37;97141.63;29376;224;63005;-57
2023/03/05 00:12:18;;;;;;;0.60;0.60;;;;;;;1.44;77.13;97145.91;29374;204;64013;-56
2023/03/05 00:12:49;;;;;;;0.60;0.60;;;;;;;1.45;77.07;97141.38;29376;234;63005;-55
2023/03/05 00:13:20;;;;;;;0.60;0.60;;;;;;;1.43;77.40;97138.94;29376;203;63009;-55
2023/03/05 00:13:53;;;;;;;0.60;0.60;;;;;;;1.43;77.21;97143.47;29376;279;63005;-56
2023/03/05 00:14:27;;;;;;;0.60;0.60;;;;;;;1.44;77.65;97145.09;29374;197;64013;-55
2023/03/05 00:14:58;;;;;;;0.60;0.60;;;;;;;1.44;77.56;97145.09;29376;310;63004;-57
2023/03/05 00:15:30;;;;;;;0.60;0.60;;;;;;;1.44;77.55;97145.09;29376;209;63009;-56
2023/03/05 00:16:11;;;;;;;0.57;0.57;;;;;;;1.44;77.41;97139.75;29376;327;63004;-56
2023/03/05 00:16:42;;;;;;;0.60;0.60;;;;;;;1.44;77.39;97140.56;29374;331;64013;-56
2023/03/05 00:17:14;;;;;;;0.60;0.60;;;;;;;1.42;77.38;97136.50;29374;299;64008;-57
2023/03/05 00:17:45;;;;;;;0.60;0.60;;;;;;;1.46;77.52;97137.66;29376;246;63008;-56
2023/03/05 00:18:16;;;;;;;0.60;0.60;;;;;;;1.45;77.57;97142.19;29376;240;63005;-57
2023/03/05 00:18:48;;;;;;;0.50;0.50;;;;;;;1.46;77.44;97148.38;29376;202;63017;-56
2023/03/05 00:19:19;;;;;;;0.60;0.60;;;;;;;1.48;77.40;97141.75;29376;204;63005;-55
2023/03/05 00:19:51;;;;;;;0.60;0.60;;;;;;;1.49;76.99;97142.56;29376;302;63009;-56
2023/03/05 00:20:22;;;;;;;0.60;0.60;;;;;;;1.48;77.02;97143.59;29376;203;63005;-56
2023/03/05 00:20:54;;;;;;;0.60;0.60;;;;;;;1.47;76.78;97145.47;29376;264;63009;-57
2023/03/05 00:21:28;;;;;;;0.60;0.60;;;;;;;1.49;76.83;97142.56;29374;206;64009;-56
2023/03/05 00:22:01;;;;;;;0.60;0.60;;;;;;;1.48;76.84;97141.75;29376;220;63017;-57
2023/03/05 00:22:34;;;;;;;0.60;0.60;;;;;;;1.45;76.92;97141.38;29376;317;63004;-56
2023/03/05 00:23:05;;;;;;;0.50;0.50;;;;;;;1.49;76.77;97137.22;29376;251;63009;-56
2023/03/05 00:23:37;;;;;;;0.60;0.60;;;;;;;1.51;76.67;97140.47;29375;248;63004;-56
2023/03/05 00:24:12;;;;;;;0.60;0.60;;;;;;;1.51;76.63;97140.47;29375;360;63008;-56
2023/03/05 00:24:43;;;;;;;0.60;0.60;;;;;;;1.53;76.87;97141.06;29375;266;63004;-56
2023/03/05 00:25:15;;;;;;;0.60;0.60;;;;;;;1.52;76.82;97144.78;29375;202;63008;-58
2023/03/05 00:25:46;;;;;;;0.60;0.60;;;;;;;1.54;76.99;97142.69;29375;216;63005;-55
2023/03/05 00:26:19;;;;;;;0.60;0.60;;;;;;;1.55;76.64;97144.31;29375;202;63009;-56
2023/03/05 00:26:51;;;;;;;0.60;0.60;;;;;;;1.55;76.46;97134.44;29373;202;64001;-55
2023/03/05 00:27:23;;;;;;;0.60;0.60;;;;;;;1.56;76.62;97132.59;29375;276;63009;-55
2023/03/05 00:27:54;;;;;;;0.60;0.60;;;;;;;1.56;76.56;97140.59;29375;286;63005;-55
2023/03/05 00:28:25;;;;;;;0.50;0.50;;;;;;;1.56;76.25;97132.59;29375;359;63009;-56
2023/03/05 00:28:57;;;;;;;0.60;0.60;;;;;;;1.54;76.48;97137.34;29375;232;63015;-55
2023/03/05 00:29:29;;;;;;;0.60;0.60;;;;;;;1.57;76.31;97134.22;29375;364;63009;-56
2023/03/05 00:30:00;;;;;;;0.60;0.60;;;;;;;1.57;76.42;97128.88;29375;197;63004;-56
2023/03/05 00:30:32;;;;;;;0.60;0.60;;;;;;;1.56;76.55;97133.41;29375;261;63009;-56
2023/03/05 00:31:04;;;;;;;0.60;0.60;;;;;;;1.58;76.45;97133.97;29375;349;63010;-56
2023/03/05 00:31:36;;;;;;;0.60;0.60;;;;;;;1.58;76.49;97133.16;29375;212;63008;-56
2023/03/05 00:32:08;;;;;;;0.60;0.60;;;;;;;1.58;76.21;97130.50;29373;282;64009;-55
2023/03/05 00:32:39;;;;;;;0.60;0.60;;;;;;;1.57;76.32;97128.88;29375;362;63009;-56
2023/03/05 00:33:12;;;;;;;0.60;0.60;;;;;;;1.57;76.83;97128.88;29375;342;63005;-56
2023/03/05 00:33:44;;;;;;;0.60;0.60;;;;;;;1.56;76.85;97137.94;29375;276;63018;-56
2023/03/05 00:34:17;;;;;;;0.60;0.60;;;;;;;1.56;76.84;97133.41;29375;219;63011;-56
2023/03/05 00:34:48;;;;;;;0.60;0.60;;;;;;;1.56;77.09;97133.41;29375;283;63009;-56
2023/03/05 00:35:20;;;;;;;0.60;0.60;;;;;;;1.56;77.06;97135.25;29375;234;63005;-56
2023/03/05 00:35:51;;;;;;;0.55;0.55;;;;;;;1.56;77.11;97132.59;29375;267;63009;-55
2023/03/05 00:36:25;;;;;;;0.60;0.60;;;;;;;1.54;77.44;97123.97;29375;320;63004;-56
2023/03/05 00:36:57;;;;;;;0.52;0.52;;;;;;;1.51;77.38;97124.44;29375;294;63009;-56
2023/03/05 00:37:28;;;;;;;0.60;0.60;;;;;;;1.51;77.17;97135.13;29373;212;64009;-56
2023/03/05 00:37:59;;;;;;;0.60;0.60;;;;;;;1.49;77.54;97138.03;29375;344;63009;-55
2023/03/05 00:38:30;;;;;;;0.60;0.60;;;;;;;1.49;77.62;97132.69;29375;317;63004;-56
2023/03/05 00:39:05;;;;;;;0.60;0.60;;;;;;;1.49;77.58;97134.53;29375;196;63025;-56
2023/03/05 00:39:36;;;;;;;0.60;0.60;;;;;;;1.49;77.56;97131.88;29375;314;63004;-56
2023/03/05 00:40:09;;;;;;;0.60;0.60;;;;;;;1.49;77.69;97137.22;29375;303;63009;-55
2023/03/05 00:40:41;;;;;;;0.70;0.70;;;;;;;1.49;77.69;97132.69;29375;236;63005;-56
2023/03/05 00:41:12;;;;;;;0.60;0.60;;;;;;;1.50;77.73;97133.50;29375;305;63009;-56
2023/03/05 00:41:43;;;;;;;0.60;0.60;;;;;;;1.48;77.82;97131.06;29375;197;63005;-55
2023/03/05 00:42:14;;;;;;;0.60;0.60;;;;;;;1.49;77.78;97129.19;29375;231;63009;-56
2023/03/05 00:42:49;;;;;;;0.60;0.60;;;;;;;1.47;78.19;97128.59;29373;211;64009;-57
2023/03/05 00:43:20;;;;;;;0.60;0.60;;;;;;;1.47;77.96;97137.44;29375;234;63009;-55
2023/03/05 00:43:53;;;;;;;0.60;0.60;;;;;;;1.48;77.69;97130.22;29396;217;63004;-56
2023/03/05 00:44:24;;;;;;;0.60;0.60;;;;;;;1.47;78.33;97132.09;29396;246;63004;-56
2023/03/05 00:44:55;;;;;;;0.60;0.60;;;;;;;1.47;77.98;97129.41;29396;324;63004;-54
2023/03/05 00:45:27;;;;;;;0.60;0.60;;;;;;;1.47;77.90;97128.59;29375;342;63009;-56
2023/03/05 00:45:58;;;;;;;0.60;0.60;;;;;;;1.47;77.98;97132.09;29375;203;63004;-56
2023/03/05 00:46:29;;;;;;;0.50;0.50;;;;;;;1.48;78.15;97130.22;29375;196;63019;-55
2023/03/05 00:47:01;;;;;;;0.82;0.82;;;;;;;1.48;78.12;97130.22;29375;284;63004;-55
2023/03/05 00:47:32;;;;;;;0.60;0.60;;;;;;;1.46;78.36;97126.97;29373;265;64014;-55
2023/03/05 00:48:04;;;;;;;0.50;0.50;;;;;;;1.46;78.15;97126.97;29375;312;63005;-56
2023/03/05 00:48:35;;;;;;;0.60;0.60;;;;;;;1.46;79.03;97121.63;29373;318;64005;-56
2023/03/05 00:49:07;;;;;;;0.52;0.52;;;;;;;1.44;78.92;97129.88;29375;225;63005;-56
2023/03/05 00:49:38;;;;;;;0.60;0.60;;;;;;;1.43;78.90;97125.56;29375;307;63014;-56
2023/03/05 00:50:10;;;;;;;0.50;0.50;;;;;;;1.43;78.79;97124.75;29375;239;63005;-56
2023/03/05 00:50:41;;;;;;;0.60;0.60;;;;;;;1.42;78.81;97126.59;29375;361;63009;-56
2023/03/05 00:51:14;;;;;;;0.60;0.60;;;;;;;1.43;78.96;97127.44;29375;230;63005;-56
2023/03/05 00:51:45;;;;;;;0.52;0.52;;;;;;;1.41;79.10;97129.50;29375;318;63013;-56
2023/03/05 00:52:18;;;;;;;0.60;0.60;;;;;;;1.40;78.80;97123.34;29373;233;64009;-56
2023/03/05 00:52:49;;;;;;;0.60;0.60;;;;;;;1.41;79.11;97129.50;29375;319;63014;-56
2023/03/05 00:53:21;;;;;;;0.60;0.60;;;;;;;1.40;79.23;97120.69;29374;330;64004;-56
2023/03/05 00:53:53;;;;;;;0.60;0.60;;;;;;;1.40;79.45;97127.87;29375;353;63009;-56
2023/03/05 00:54:24;;;;;;;0.60;0.60;;;;;;;1.39;79.41;97127.06;29375;305;63004;-56
2023/03/05 00:54:56;;;;;;;0.60;0.60;;;;;;;1.39;79.16;97126.28;29375;352;63009;-56
2023/03/05 00:55:30;;;;;;;0.60;0.60;;;;;;;1.39;78.88;97126.28;29375;305;63005;-55
2023/03/05 00:56:02;;;;;;;0.70;0.70;;;;;;;1.37;79.20;97123.03;29375;216;63014;-56
2023/03/05 00:56:33;;;;;;;0.60;0.60;;;;;;;1.36;79.08;97124.88;29373;298;64009;-71
2023/03/05 00:57:05;;;;;;;0.60;0.60;;;;;;;1.36;79.13;97118.72;29375;363;63009;-56
2023/03/05 00:57:36;;;;;;;3.90;3.70;;;;;;;1.36;79.24;97122.19;29375;363;63005;-56
2023/03/05 00:58:07;;;;;;;0.60;0.60;;;;;;;1.37;79.12;97123.03;29375;202;63009;-55
2023/03/05 00:58:42;;;;;;;0.90;0.90;;;;;;;1.38;78.88;97119.31;29375;359;63005;-56
2023/03/05 00:59:14;;;;;;;0.60;0.60;;;;;;;1.38;79.05;97113.97;29375;252;63009;-56
2023/03/05 00:59:46;;;;;;;0.60;0.60;;;;;;;1.37;78.71;97123.84;29373;228;64009;-56
2023/03/05 01:00:18;;;;;;;0.60;0.60;;;;;;;1.38;78.80;97119.31;29375;261;63009;-56
2023/03/05 01:00:49;;;;;;;0.60;0.60;;;;;;;1.38;78.97;97119.31;29375;303;63004;-56
2023/03/05 01:01:21;;;;;;;0.60;0.60;;;;;;;1.37;79.39;97112.31;29375;250;63009;-56
2023/03/05 01:01:52;;;;;;;0.60;0.60;;;;;;;1.37;79.00;97112.31;29375;196;63004;-56
2023/03/05 01:02:24;;;;;;;0.60;0.60;;;;;;;1.37;79.20;97112.31;29375;203;63021;-56
2023/03/05 01:02:56;;;;;;;0.60;0.60;;;;;;;1.37;79.05;97117.66;29373;198;64009;-56
2023/03/05 01:03:29;;;;;;;0.50;0.50;;;;;;;1.36;79.21;97113.37;29373;245;64014;-56
2023/03/05 01:04:00;;;;;;;0.60;0.60;;;;;;;1.36;78.82;97110.69;29375;292;63005;-56
2023/03/05 01:04:32;;;;;;;0.68;0.68;;;;;;;1.36;78.83;97108.03;29375;266;63009;-56
2023/03/05 01:05:04;;;;;;;0.60;0.60;;;;;;;1.36;78.76;97108.84;29375;282;63005;-56
2023/03/05 01:05:37;;;;;;;0.60;0.60;;;;;;;1.37;79.18;97115.81;29375;362;63009;-55
2023/03/05 01:06:12;;;;;;;0.60;0.60;;;;;;;1.38;79.04;97113.97;29375;209;63005;-56
2023/03/05 01:06:45;;;;;;;0.60;0.60;;;;;;;1.37;79.46;97112.31;29375;238;63009;-56
2023/03/05 01:07:16;;;;;;;0.60;0.60;;;;;;;1.36;79.71;97110.69;29375;199;63004;-56
2023/03/05 01:07:51;;;;;;;0.60;0.60;;;;;;;1.34;79.58;97103.72;29375;202;63009;-56
2023/03/05 01:08:24;;;;;;;0.60;0.60;;;;;;;1.36;79.26;97113.37;29375;320;63004;-56
2023/03/05 01:08:55;;;;;;;0.60;0.60;;;;;;;1.34;79.49;97111.75;29373;208;64013;-55
2023/03/05 01:09:27;;;;;;;0.55;0.55;;;;;;;1.34;79.59;97106.38;29375;325;63004;-56
2023/03/05 01:09:59;;;;;;;0.60;0.60;;;;;;;1.34;79.34;97114.41;29375;305;63009;-57
2023/03/05 01:10:31;;;;;;;0.60;0.60;;;;;;;1.34;79.08;97102.91;29376;232;63005;-67
2023/03/05 01:11:03;;;;;;;0.50;0.50;;;;;;;1.34;79.38;97105.56;29375;202;63009;-55
2023/03/05 01:12:43;;;;;;;0.57;0.57;;;;;;;1.38;79.26;97103.25;87938;202;151000;-55
2023/03/05 01:13:14;;;;;;;0.60;0.60;;;;;;;1.40;79.04;97106.50;29394;209;64009;-55
2023/03/05 01:13:46;;;;;;;0.60;0.60;;;;;;;1.40;79.11;97101.97;29373;263;63004;-56
2023/03/05 01:14:18;;;;;;;0.60;0.60;;;;;;;1.42;78.97;97104.41;29373;319;63016;-70
2023/03/05 01:14:49;;;;;;;0.60;0.60;;;;;;;1.41;78.95;97102.78;29373;284;63004;-56
2023/03/05 01:15:23;;;;;;;0.60;0.60;;;;;;;1.41;79.09;97103.59;29373;218;63009;-57
2023/03/05 01:15:55;;;;;;;0.60;0.60;;;;;;;1.40;79.22;97101.97;29373;226;63004;-56
2023/03/05 01:16:26;;;;;;;0.55;0.55;;;;;;;1.41;79.24;97095.56;29373;378;63019;-57
2023/03/05 01:16:57;;;;;;;0.52;0.52;;;;;;;1.41;79.10;97092.06;29373;263;63005;-56
2023/03/05 01:17:29;;;;;;;0.60;0.60;;;;;;;1.42;78.97;97094.53;29371;202;64014;-69
2023/03/05 01:18:00;;;;;;;0.60;0.60;;;;;;;1.41;79.23;97095.56;29371;205;64009;-57
2023/03/05 01:18:33;;;;;;;0.60;0.60;;;;;;;1.43;79.53;97103.38;29373;222;63009;-56
2023/03/05 01:19:05;;;;;;;0.60;0.60;;;;;;;1.42;79.94;97107.09;29373;294;63007;-56
2023/03/05 01:19:37;;;;;;;0.50;0.50;;;;;;;1.40;80.32;97096.63;29373;283;63009;-56
2023/03/05 01:20:12;;;;;;;0.60;0.60;;;;;;;1.39;80.22;97099.53;29373;205;63004;-57
2023/03/05 01:20:44;;;;;;;0.60;0.60;;;;;;;1.37;80.42;97096.28;29373;196;63019;-56
2023/03/05 01:21:17;;;;;;;0.60;0.60;;;;;;;1.37;80.45;97094.44;29371;210;64009;-68
2023/03/05 01:21:49;;;;;;;0.60;0.60;;;;;;;1.39;79.95;97094.97;29373;300;63009;-68
2023/03/05 01:22:20;;;;;;;0.60;0.60;;;;;;;1.40;79.86;97093.94;29373;215;63004;-70
2023/03/05 01:22:52;;;;;;;0.60;0.60;;;;;;;1.41;80.18;97094.75;29373;206;63009;-55
2023/03/05 01:23:24;;;;;;;0.60;0.60;;;;;;;1.41;80.50;97089.41;29373;198;63004;-68
2023/03/05 01:23:55;;;;;;;0.60;0.60;;;;;;;1.40;80.61;97093.94;29373;202;63009;-56
2023/03/05 01:24:30;;;;;;;0.60;0.60;;;;;;;1.39;80.54;97096.87;29373;242;63005;-56
2023/03/05 01:25:02;;;;;;;0.60;0.60;;;;;;;1.39;80.67;97088.84;29373;212;63009;-56
2023/03/05 01:25:34;;;;;;;0.60;0.60;;;;;;;1.37;80.38;97091.75;29373;276;63008;-56
2023/03/05 01:26:07;;;;;;;0.60;0.60;;;;;;;1.38;80.53;97095.25;29373;276;63009;-56
2023/03/05 01:26:38;;;;;;;0.60;0.60;;;;;;;1.36;80.75;97084.78;29371;276;64009;-56
2023/03/05 01:27:09;;;;;;;0.60;0.60;;;;;;;1.36;80.59;97089.31;29373;275;63009;-57
2023/03/05 01:27:41;;;;;;;0.60;0.60;;;;;;;1.37;80.14;97093.62;29373;205;63004;-56
2023/03/05 01:28:12;;;;;;;0.50;0.50;;;;;;;1.36;80.08;97089.31;29373;206;63009;-56
2023/03/05 01:28:47;;;;;;;0.60;0.60;;;;;;;1.35;79.99;97088.50;29373;252;63004;-56
2023/03/05 01:29:18;;;;;;;0.55;0.55;;;;;;;1.37;80.04;97088.25;29371;223;64013;-56
2023/03/05 01:29:50;;;;;;;0.60;0.60;;;;;;;1.37;79.98;97086.41;29373;220;63004;-56
2023/03/05 01:30:22;;;;;;;0.60;0.60;;;;;;;1.37;80.16;97097.09;29371;329;64013;-56
2023/03/05 01:30:53;;;;;;;0.60;0.60;;;;;;;1.37;80.37;97085.59;29373;223;63011;-57
2023/03/05 01:31:24;;;;;;;0.60;0.60;;;;;;;1.38;80.09;97093.38;29373;288;63009;-55
2023/03/05 01:31:56;;;;;;;0.60;0.60;;;;;;;1.37;80.80;97088.25;29373;249;63005;-56
2023/03/05 01:32:30;;;;;;;0.60;0.60;;;;;;;1.37;80.57;97085.59;29373;202;63009;-56
2023/03/05 01:33:02;;;;;;;0.60;0.60;;;;;;;1.36;80.27;97089.31;29373;217;63005;-57
2023/03/05 01:33:34;;;;;;;0.60;0.60;;;;;;;1.37;80.54;97090.94;29373;214;63018;-56
2023/03/05 01:34:05;;;;;;;0.60;0.60;;;;;;;1.33;80.38;97086.03;29372;273;64005;-56
2023/03/05 01:34:37;;;;;;;0.60;0.60;;;;;;;1.36;80.43;97084.78;29371;252;64013;-57
2023/03/05 01:35:19;;;;;;;0.60;0.60;;;;;;;1.36;80.46;97090.13;29373;204;63004;-56
2023/03/05 01:35:50;;;;;;;0.60;0.60;;;;;;;1.34;80.58;97082.34;29373;232;63009;-56
2023/03/05 01:36:23;;;;;;;0.60;0.60;;;;;;;1.37;80.35;97085.59;29373;270;63004;-56
2023/03/05 01:36:55;;;;;;;0.50;0.50;;;;;;;1.34;80.61;97087.69;29373;264;63009;-57
2023/03/05 01:37:27;;;;;;;0.60;0.60;;;;;;;1.36;80.64;97083.97;29373;196;63008;-56
2023/03/05 01:37:58;;;;;;;0.60;0.60;;;;;;;1.36;80.93;97073.28;29373;302;63023;-56
2023/03/05 01:38:30;;;;;;;0.60;0.60;;;;;;;1.36;80.51;97078.62;29373;204;63005;-68
2023/03/05 01:39:01;;;;;;;0.60;0.60;;;;;;;1.34;80.51;97079.66;29373;262;63009;-55
2023/03/05 01:39:35;;;;;;;0.50;0.50;;;;;;;1.36;80.72;97075.94;29371;251;64009;-57
2023/03/05 01:40:08;;;;;;;0.60;0.60;;;;;;;1.34;80.94;97076.97;29373;257;63009;-56
2023/03/05 01:40:41;;;;;;;0.60;0.60;;;;;;;1.35;80.80;97077.81;29373;206;63005;-56
2023/03/05 01:41:15;;;;;;;0.60;0.60;;;;;;;1.36;81.00;97074.09;29373;277;63009;-68
2023/03/05 01:41:49;;;;;;;0.60;0.60;;;;;;;1.33;80.51;97070.00;29373;254;63008;-56
2023/03/05 01:42:22;;;;;;;0.60;0.60;;;;;;;1.32;80.71;97070.22;29373;330;63009;-57
2023/03/05 01:43:29;;;;;;;0.60;0.60;;;;;;;1.32;80.65;97079.06;29373;261;63004;-71
2023/03/05 01:44:05;;;;;;;0.60;0.60;;;;;;;1.31;80.44;97077.44;29373;209;63009;-57
2023/03/05 01:44:37;;;;;;;0.60;0.60;;;;;;;1.29;80.44;97074.19;29371;210;64009;-58
2023/03/05 01:45:15;;;;;;;0.60;0.60;;;;;;;1.29;80.54;97068.03;29373;273;63008;-56
2023/03/05 01:46:23;;;;;;;0.60;0.60;;;;;;;1.28;80.17;97067.19;29373;236;63005;-56
2023/03/05 01:46:55;;;;;;;0.60;0.60;;;;;;;1.27;80.56;97076.25;29371;262;64009;-56
2023/03/05 01:47:27;;;;;;;0.60;0.60;;;;;;;1.28;80.23;97069.88;29373;276;63013;-56
2023/03/05 01:47:58;;;;;;;0.60;0.60;;;;;;;1.28;80.28;97077.91;29373;200;63005;-57
2023/03/05 01:48:29;;;;;;;0.60;0.60;;;;;;;1.28;80.17;97066.37;29373;204;63009;-56
2023/03/05 01:49:21;;;;;;;0.60;0.60;;;;;;;1.29;80.31;97068.03;29373;205;63005;-56
2023/03/05 01:49:53;;;;;;;0.60;0.60;;;;;;;1.30;79.88;97073.13;29373;226;63009;-56
2023/03/05 01:50:26;;;;;;;0.60;0.60;;;;;;;1.29;80.09;97068.84;29371;211;64009;-71
2023/03/05 01:50:58;;;;;;;0.60;0.60;;;;;;;1.30;80.07;97070.47;29373;214;63009;-56
2023/03/05 01:51:34;;;;;;;0.60;0.60;;;;;;;1.28;80.48;97067.19;29373;220;63004;-56
2023/03/05 01:52:19;;;;;;;0.60;0.60;;;;;;;1.26;80.78;97063.94;29373;202;63009;-56
2023/03/05 01:52:58;;;;;;;0.60;0.60;;;;;;;1.22;80.87;97057.41;29373;217;63004;-68
2023/03/05 01:53:30;;;;;;;0.60;0.60;;;;;;;1.26;80.40;97065.81;29371;205;64014;-56
2023/03/05 01:54:04;;;;;;;0.60;0.60;;;;;;;1.26;80.66;97063.94;29373;232;63005;-56
2023/03/05 01:54:57;;;;;;;0.60;0.60;;;;;;;1.26;80.20;97063.94;29373;197;63009;-57
2023/03/05 01:55:31;;;;;;;0.52;0.52;;;;;;;1.29;80.85;97065.34;29373;197;63016;-56
2023/03/05 01:56:04;;;;;;;3.08;2.97;;;;;;;1.27;80.67;97060.22;29373;214;63009;-56
2023/03/05 01:56:37;;;;;;;0.60;0.60;;;;;;;1.29;80.27;97060.81;29371;211;64009;-57
2023/03/05 01:57:33;;;;;;;0.60;0.60;;;;;;;1.28;80.37;97061.84;29373;219;63009;-56
2023/03/05 01:58:11;;;;;;;0.60;0.60;;;;;;;1.28;81.07;97063.72;29373;220;63008;-56
2023/03/05 01:58:44;;;;;;;0.60;0.60;;;;;;;1.28;80.82;97055.69;29371;253;64013;-56
2023/03/05 01:59:16;;;;;;;0.60;0.60;;;;;;;1.27;81.01;97054.88;29373;253;63004;-56
2023/03/05 01:59:54;;;;;;;0.60;0.60;;;;;;;1.27;80.61;97065.56;29373;316;63009;-56
2023/03/05 02:00:30;;;;;;;0.60;0.60;;;;;;;1.28;80.61;97056.50;29371;201;64008;-56
2023/03/05 02:01:02;;;;;;;0.60;0.60;;;;;;;1.29;80.67;97051.97;29373;215;63009;-56
2023/03/05 02:01:43;;;;;;;0.60;0.60;;;;;;;1.30;80.57;97057.09;29373;202;63005;-68
2023/03/05 02:02:17;;;;;;;0.65;0.65;;;;;;;1.30;80.33;97053.59;29393;263;64014;-56
2023/03/05 02:02:50;;;;;;;0.60;0.60;;;;;;;1.30;80.50;97049.06;29395;209;63005;-56
2023/03/05 02:03:23;;;;;;;0.60;0.60;;;;;;;1.31;80.78;97055.25;29373;303;63017;-56
2023/03/05 02:03:55;;;;;;;0.60;0.60;;;;;;;1.28;80.91;97051.16;29373;284;63005;-56
2023/03/05 02:04:35;;;;;;;0.60;0.60;;;;;;;1.28;81.08;97055.69;29372;228;63009;-56
2023/03/05 02:05:14;;;;;;;0.60;0.60;;;;;;;1.26;81.69;97053.25;29373;215;63004;-57
2023/03/05 02:05:45;;;;;;;0.60;0.60;;;;;;;1.27;81.26;97052.22;29373;222;63009;-55
2023/03/05 02:06:16;;;;;;;0.60;0.60;;;;;;;1.26;81.34;97057.78;29371;224;64009;-71
2023/03/05 02:06:51;;;;;;;0.50;0.50;;;;;;;1.25;80.83;97048.94;29373;242;63009;-56
2023/03/05 02:07:24;;;;;;;0.60;0.60;;;;;;;1.25;80.89;97048.12;29373;202;63004;-56
2023/03/05 02:07:57;;;;;;;0.60;0.60;;;;;;;1.25;81.01;97048.12;29373;205;63008;-56
2023/03/05 02:08:29;;;;;;;0.60;0.60;;;;;;;1.24;81.31;97050.00;29373;222;63009;-57
2023/03/05 02:09:00;;;;;;;0.60;0.60;;;;;;;1.25;81.21;97046.28;29373;202;63009;-57
2023/03/05 02:09:31;;;;;;;0.60;0.60;;;;;;;1.26;81.09;97053.25;29373;200;63005;-56
2023/03/05 02:10:21;;;;;;;4.55;4.22;;;;;;;1.26;80.70;97047.09;29373;206;63019;-68
2023/03/05 02:10:55;;;;;;;0.60;0.60;;;;;;;1.26;80.95;97045.22;29373;238;63005;-56
2023/03/05 02:11:28;;;;;;;0.60;0.60;;;;;;;1.27;80.52;97046.84;29371;219;64013;-56
2023/03/05 02:12:00;;;;;;;0.60;0.60;;;;;;;1.28;80.73;97040.47;29373;198;63005;-56
2023/03/05 02:12:34;;;;;;;0.60;0.60;;;;;;;1.29;80.19;97047.44;29373;204;63009;-56
2023/03/05 02:13:13;;;;;;;0.60;0.60;;;;;;;1.30;81.14;97038.38;29373;202;63004;-56
2023/03/05 02:13:45;;;;;;;0.60;0.60;;;;;;;1.28;81.03;97040.47;29373;197;63009;-56
2023/03/05 02:14:23;;;;;;;0.60;0.60;;;;;;;1.29;81.07;97042.09;29373;257;63004;-56
2023/03/05 02:14:58;;;;;;;0.60;0.60;;;;;;;1.29;80.83;97039.44;29373;271;63009;-55
2023/03/05 02:15:30;;;;;;;0.60;0.60;;;;;;;1.28;81.03;97043.16;29373;224;63004;-56
2023/03/05 02:16:02;;;;;;;0.60;0.60;;;;;;;1.30;81.01;97046.41;29373;219;63009;-55
2023/03/05 02:16:35;;;;;;;0.60;0.60;;;;;;;1.30;81.15;97042.91;29371;220;64009;-56
2023/03/05 02:17:09;;;;;;;0.60;0.60;;;;;;;1.29;81.38;97052.78;29373;198;63009;-56
2023/03/05 02:17:41;;;;;;;0.60;0.60;;;;;;;1.31;81.07;97041.88;29373;200;63005;-56
2023/03/05 02:18:13;;;;;;;0.60;0.60;;;;;;;1.31;81.04;97036.53;29373;207;63027;-56
2023/03/05 02:18:44;;;;;;;0.60;0.60;;;;;;;1.30;81.01;97038.38;29373;229;63005;-56
2023/03/05 02:19:16;;;;;;;0.60;0.60;;;;;;;1.30;81.15;97038.38;29372;225;63009;-56
2023/03/05 02:20:02;;;;;;;0.60;0.60;;;;;;;1.30;81.31;97035.72;29373;226;63014;-56
2023/03/05 02:21:00;;;;;;;0.70;0.70;;;;;;;1.30;81.25;97033.03;29373;232;63009;-56
2023/03/05 02:21:41;;;;;;;2.58;2.47;;;;;;;1.30;81.32;97038.38;29373;228;63004;-56
2023/03/05 02:22:17;;;;;;;0.70;0.70;;;;;;;1.31;81.03;97037.34;29393;225;64013;-56
2023/03/05 02:22:50;;;;;;;0.60;0.60;;;;;;;1.31;81.23;97034.66;29395;234;63004;-57
2023/03/05 02:23:23;;;;;;;0.60;0.60;;;;;;;1.30;81.11;97027.69;29373;248;63009;-57
2023/03/05 02:23:56;;;;;;;0.60;0.60;;;;;;;1.30;81.02;97033.03;29373;213;63005;-57
2023/03/05 02:24:36;;;;;;;2.58;1.25;;;;;;;1.30;80.88;97033.03;29373;293;63009;-56
2023/03/05 02:25:21;;;;;;;0.60;0.60;;;;;;;1.31;80.84;97023.16;29373;198;63005;-70
2023/03/05 02:25:53;;;;;;;0.60;0.60;;;;;;;1.29;80.85;97025.25;29373;196;63009;-70
2023/03/05 02:26:24;;;;;;;0.60;0.60;;;;;;;1.33;80.79;97026.41;29373;208;63005;-56
2023/03/05 02:26:59;;;;;;;0.60;0.60;;;;;;;1.33;80.96;97031.75;29373;200;63009;-55
2023/03/05 02:27:41;;;;;;;0.60;0.60;;;;;;;1.33;80.98;97029.91;29371;257;64009;-56
2023/03/05 02:28:34;;;;;;;0.60;0.60;;;;;;;1.33;81.19;97032.59;29373;284;63009;-56
2023/03/05 02:29:08;;;;;;;0.60;0.60;;;;;;;1.33;81.37;97031.75;29373;204;63009;-69
2023/03/05 02:29:45;;;;;;;0.60;0.60;;;;;;;1.32;81.62;97038.97;29373;214;63004;-56
2023/03/05 02:30:17;;;;;;;0.68;0.68;;;;;;;1.33;81.47;97031.75;29373;222;63008;-55
2023/03/05 02:30:49;;;;;;;0.50;0.50;;;;;;;1.33;81.51;97027.22;29373;221;63004;-70
2023/03/05 02:31:24;;;;;;;0.60;0.60;;;;;;;1.34;81.30;97034.22;29373;209;63009;-56
2023/03/05 02:31:55;;;;;;;0.57;0.57;;;;;;;1.34;80.91;97034.22;29373;306;63005;-56
2023/03/05 02:32:26;;;;;;;0.68;0.68;;;;;;;1.36;81.17;97035.84;29373;263;63009;-56
2023/03/05 02:32:58;;;;;;;0.60;0.60;;;;;;;1.37;80.96;97026.78;29371;260;64009;-56
2023/03/05 02:33:29;;;;;;;0.60;0.60;;;;;;;1.37;80.78;97029.44;29371;197;64013;-55
2023/03/05 02:34:01;;;;;;;0.60;0.60;;;;;;;1.39;80.87;97024.69;29373;202;63005;-56
2023/03/05 02:34:32;;;;;;;0.60;0.60;;;;;;;1.38;80.82;97023.06;29373;190;63009;-56
2023/03/05 02:35:04;;;;;;;0.60;0.60;;;;;;;1.38;80.73;97029.22;29373;257;63004;-56
2023/03/05 02:35:36;;;;;;;0.60;0.60;;;;;;;1.38;81.25;97023.06;29373;221;63009;-56
2023/03/05 02:36:11;;;;;;;0.60;0.60;;;;;;;1.36;81.03;97023.28;29373;264;63004;-70
2023/03/05 02:36:42;;;;;;;0.60;0.60;;;;;;;1.36;81.07;97025.16;29373;268;63009;-55
2023/03/05 02:37:13;;;;;;;0.60;0.60;;;;;;;1.36;81.51;97030.50;29373;210;63004;-55
2023/03/05 02:37:45;;;;;;;0.60;0.60;;;;;;;1.35;81.62;97024.34;29371;219;64014;-56
2023/03/05 02:38:19;;;;;;;0.60;0.60;;;;;;;1.32;81.41;97027.47;29373;221;63005;-56
2023/03/05 02:38:52;;;;;;;0.60;0.60;;;;;;;1.30;81.42;97026.88;29373;199;63009;-56
2023/03/05 02:39:23;;;;;;;0.60;0.60;;;;;;;1.28;81.29;97020.94;29373;222;63005;-56
2023/03/05 02:39:58;;;;;;;0.65;0.65;;;;;;;1.29;81.51;97018.03;29373;222;63009;-55
2023/03/05 02:40:29;;;;;;;0.60;0.60;;;;;;;1.30;81.89;97017.00;29373;242;63005;-56
2023/03/05 02:41:00;;;;;;;0.60;0.60;;;;;;;1.30;81.93;97027.69;29373;203;63009;-56
2023/03/05 02:41:32;;;;;;;0.50;0.50;;;;;;;1.31;82.06;97029.31;29373;295;63005;-55
2023/03/05 02:42:04;;;;;;;0.60;0.60;;;;;;;1.31;81.96;97023.16;29373;220;63009;-55